This is the latest recevied weather packets stored in our database for station/object K9JVA. If no packets are shown the sender has not sent any weather packets the latest 10 day(s).
| Time | Temp. | Humidity | Pressure | Rain* | Wind** | Luminosity | Snow |
|---|---|---|---|---|---|---|---|
| 1777511091 | 13.33° C | 72% | 1012.6 hPa | 0 mm | - | - | - |
| 1777508632 | 14.44° C | 69% | 1012.1 hPa | 0 mm | - | - | - |
| 1777508621 | 14.44° C | 69% | 1012.2 hPa | 0 mm | - | - | - |
| 1777507971 | 14.44° C | 69% | 1012.1 hPa | 0 mm | - | - | - |
| 1777507072 | 15° C | 69% | 1011.7 hPa | 0 mm | - | - | - |
| 1777506612 | 15.56° C | 68% | 1011.6 hPa | 0 mm | - | - | - |
| 1777501434 | 17.78° C | 66% | 1011.2 hPa | 0 mm | - | - | - |
| 1777501134 | 17.78° C | 67% | 1011.2 hPa | 0 mm | - | - | - |
| 1777500071 | 17.78° C | 67% | 1011.1 hPa | 0 mm | - | - | - |
| 1777497623 | 19.44° C | 68% | 1010.6 hPa | 0 mm | - | - | - |
| 1777496575 | 19.44° C | 69% | 1010.8 hPa | 0 mm | - | - | - |
| 1777495316 | 17.78° C | 73% | 1010.9 hPa | 0 mm | - | - | - |
| 1777494358 | 18.33° C | 71% | 1010.8 hPa | 0 mm | - | - | - |
| 1777492796 | 19.44° C | 71% | 1010.9 hPa | 0 mm | - | - | - |
| 1777492499 | 19.44° C | 72% | 1010.9 hPa | 0 mm | - | - | - |
| 1777491138 | 18.33° C | 76% | 1010.9 hPa | 0 mm | - | - | - |
| 1777489377 | 17.22° C | 80% | 1011 hPa | 0 mm | - | - | - |
| 1777488713 | 16.67° C | 80% | 1010.8 hPa | 0 mm | - | - | - |
| 1777487813 | 17.78° C | 82% | 1010.9 hPa | 0 mm | - | - | - |
| 1777487214 | 17.22° C | 86% | 1010.9 hPa | 0 mm | - | - | - |
| 1777486914 | 15.56° C | 88% | 1010.9 hPa | 0 mm | - | - | - |
| 1777486613 | 15° C | 89% | 1010.7 hPa | 0 mm | - | - | - |
| 1777485294 | 15° C | 89% | 1010.7 hPa | 0 mm | - | - | - |
| 1777481335 | 14.44° C | 94% | 1010.7 hPa | 0 mm | - | - | - |
| 1777479835 | 14.44° C | 94% | 1010.7 hPa | 0 mm | - | - | - |
* Rain since midnight (hover to see other rain measurements)
** Current wind speed in m/s (hover to see current wind gust speed)